Time;durP1;ratioP1;P1;durP2;ratioP2;P2;SDS_P1;SDS_P2;PMS_P1;PMS_P2;Temp;Humidity;BMP_temperature;BMP_pressure;BME280_temperature;BME280_humidity;BME280_pressure;Samples;Min_cycle;Max_cycle;Signal;HPM_P1;HPM_P2
2023/03/08 00:00:49;;;;;;;5.20;0.70;;;-1.70;63.40;;;;;;4106709;28;20226;-84
2023/03/08 00:02:52;;;;;;;3.88;0.98;;;-1.70;63.50;;;;;;4116769;28;20034;-84
2023/03/08 00:04:55;;;;;;;6.43;0.57;;;-1.70;63.60;;;;;;4098282;28;20087;-84
2023/03/08 00:06:59;;;;;;;3.15;0.68;;;-1.70;63.60;;;;;;4088063;29;20131;-84
2023/03/08 00:09:01;;;;;;;3.22;1.00;;;-1.70;63.70;;;;;;4092439;29;20036;-85
2023/03/08 00:11:09;;;;;;;3.20;0.80;;;-1.70;63.90;;;;;;4118017;28;20111;-86
2023/03/08 00:13:10;;;;;;;1.77;0.60;;;-1.70;63.90;;;;;;4097645;28;20042;-84
2023/03/08 00:15:11;;;;;;;4.05;0.50;;;-1.70;63.90;;;;;;4117474;28;20042;-84
2023/03/08 00:17:11;;;;;;;3.63;0.60;;;-1.70;64.00;;;;;;4100845;28;20031;-84
2023/03/08 00:19:12;;;;;;;3.67;0.68;;;-1.70;64.80;;;;;;4115117;28;21070;-84
2023/03/08 00:21:15;;;;;;;3.70;0.75;;;-1.70;64.30;;;;;;4085553;29;20051;-82
2023/03/08 00:23:16;;;;;;;3.50;0.70;;;-1.70;64.10;;;;;;4120963;28;20030;-81
2023/03/08 00:25:20;;;;;;;5.20;0.65;;;-1.70;64.30;;;;;;4109172;28;20103;-84
2023/03/08 00:27:28;;;;;;;12.05;0.73;;;-1.70;64.40;;;;;;4121799;28;20034;-84
2023/03/08 00:29:29;;;;;;;8.60;0.85;;;-1.70;64.60;;;;;;4117077;28;20023;-84
2023/03/08 00:31:30;;;;;;;3.30;0.50;;;-1.70;64.70;;;;;;4120042;28;20552;-84
2023/03/08 00:33:31;;;;;;;5.40;0.73;;;-1.70;65.40;;;;;;4085423;29;20035;-85
2023/03/08 00:35:32;;;;;;;3.10;0.98;;;-1.70;64.60;;;;;;4117598;28;20042;-83
2023/03/08 00:37:33;;;;;;;6.55;1.20;;;-1.70;64.70;;;;;;4113794;28;20027;-84
2023/03/08 00:39:33;;;;;;;4.80;0.70;;;-1.70;64.80;;;;;;4102907;28;20051;-85
2023/03/08 00:41:34;;;;;;;2.90;0.80;;;-1.70;64.90;;;;;;4104573;28;20022;-82
2023/03/08 00:43:36;;;;;;;6.13;0.65;;;-1.70;64.90;;;;;;4119201;28;20045;-82
2023/03/08 00:45:37;;;;;;;2.45;0.60;;;-1.60;65.00;;;;;;4112713;28;20023;-83
2023/03/08 00:47:38;;;;;;;5.45;0.40;;;-1.80;65.00;;;;;;4113397;28;20698;-82
2023/03/08 00:49:39;;;;;;;4.70;0.68;;;-1.80;65.00;;;;;;4087849;28;20027;-83
2023/03/08 00:51:42;;;;;;;4.22;0.75;;;-1.80;65.00;;;;;;4096513;28;20031;-83
2023/03/08 00:53:46;;;;;;;3.92;0.70;;;-1.80;65.00;;;;;;4098891;28;20067;-83
2023/03/08 00:55:53;;;;;;;2.03;0.50;;;-1.70;65.10;;;;;;4098387;28;20039;-83
2023/03/08 00:57:53;;;;;;;3.50;0.40;;;-1.80;65.20;;;;;;4088031;29;20026;-83
2023/03/08 00:59:54;;;;;;;5.85;0.75;;;-1.70;65.20;;;;;;4115984;28;20026;-84
2023/03/08 01:01:55;;;;;;;2.85;0.60;;;-1.80;65.10;;;;;;4098993;28;20110;-82
2023/03/08 01:03:56;;;;;;;3.63;0.55;;;-1.80;65.90;;;;;;4117555;28;20081;-84
2023/03/08 01:05:58;;;;;;;1.45;0.50;;;-1.80;65.20;;;;;;4096481;28;20122;-83
2023/03/08 01:08:01;;;;;;;1.08;0.40;;;-1.80;65.20;;;;;;4100485;28;20035;-84
2023/03/08 01:10:04;;;;;;;2.38;0.50;;;-1.80;65.20;;;;;;4115799;28;20038;-83
2023/03/08 01:12:04;;;;;;;5.53;0.57;;;-1.90;65.20;;;;;;4118302;28;20050;-83
2023/03/08 01:14:09;;;;;;;2.50;0.70;;;-1.90;65.30;;;;;;4123108;28;20034;-84
2023/03/08 01:16:23;;;;;;;3.60;0.50;;;-1.90;65.30;;;;;;4085265;29;20047;-83
2023/03/08 01:18:24;;;;;;;2.20;0.45;;;-1.90;65.40;;;;;;4095836;28;20042;-82
2023/03/08 01:20:25;;;;;;;5.95;0.80;;;-1.90;65.50;;;;;;4087912;29;20032;-84
2023/03/08 01:22:26;;;;;;;3.58;0.60;;;-1.90;65.50;;;;;;4100592;28;20066;-84
2023/03/08 01:24:27;;;;;;;3.45;0.57;;;-1.90;65.60;;;;;;4119722;28;20027;-84
2023/03/08 01:26:28;;;;;;;4.57;0.73;;;-1.80;65.70;;;;;;4119912;28;20031;-84
2023/03/08 01:28:29;;;;;;;4.97;0.55;;;-1.90;65.60;;;;;;4121141;28;20496;-83
2023/03/08 01:30:29;;;;;;;6.07;0.52;;;-1.90;65.60;;;;;;4116864;28;20114;-83
2023/03/08 01:32:30;;;;;;;1.40;0.47;;;-1.90;65.50;;;;;;4122208;28;20039;-85
2023/03/08 01:34:31;;;;;;;3.15;0.50;;;-1.90;65.60;;;;;;4122478;28;20046;-84
2023/03/08 01:36:32;;;;;;;4.60;0.68;;;-1.90;65.60;;;;;;4118247;28;20030;-82
2023/03/08 01:38:32;;;;;;;10.25;0.65;;;-1.90;65.70;;;;;;4103565;28;20060;-81
2023/03/08 01:40:33;;;;;;;1.67;0.50;;;-2.00;65.30;;;;;;4114875;28;20038;-82
2023/03/08 01:42:54;;;;;;;2.50;0.60;;;-2.00;65.80;;;;;;4116439;28;20552;-82
2023/03/08 01:45:52;;;;;;;3.58;0.47;;;-2.00;65.80;;;;;;4119740;28;20394;-84
2023/03/08 01:47:53;;;;;;;3.10;0.50;;;-2.00;65.90;;;;;;4113666;28;20030;-83
2023/03/08 01:50:07;;;;;;;1.90;0.32;;;-2.00;65.80;;;;;;4105093;28;20058;-83
2023/03/08 01:52:13;;;;;;;5.43;0.55;;;-2.00;65.70;;;;;;4105664;28;20093;-84
2023/03/08 01:54:19;;;;;;;4.70;0.60;;;-2.10;65.70;;;;;;4101800;28;20022;-84
2023/03/08 01:56:21;;;;;;;4.32;0.80;;;-2.10;65.70;;;;;;4110320;28;20494;-82
2023/03/08 01:58:22;;;;;;;2.70;0.50;;;-2.10;65.80;;;;;;4116327;28;20397;-83
2023/03/08 02:00:25;;;;;;;5.85;0.82;;;-2.10;65.80;;;;;;4111940;28;20065;-82
2023/03/08 02:02:33;;;;;;;6.18;0.60;;;-2.10;65.90;;;;;;4084282;29;20034;-83
2023/03/08 02:04:35;;;;;;;2.47;0.50;;;-2.10;65.90;;;;;;4095246;28;20043;-83
2023/03/08 02:06:37;;;;;;;2.83;0.55;;;-2.10;66.00;;;;;;4098755;28;20120;-83
2023/03/08 02:08:38;;;;;;;1.65;0.50;;;-2.10;66.10;;;;;;4114038;28;20067;-82
2023/03/08 02:10:39;;;;;;;5.50;1.15;;;-2.10;66.00;;;;;;4121240;28;20046;-82
2023/03/08 02:12:40;;;;;;;5.07;0.60;;;-2.10;66.40;;;;;;4117522;28;20039;-84
2023/03/08 02:14:42;;;;;;;3.83;0.63;;;-2.10;66.40;;;;;;4116395;28;20034;-82
2023/03/08 02:16:43;;;;;;;4.53;0.60;;;-2.20;66.50;;;;;;4117262;28;20035;-82
2023/03/08 02:19:11;;;;;;;5.78;0.40;;;-2.10;66.70;;;;;;4104385;28;20042;-84
2023/03/08 02:21:12;;;;;;;4.82;0.40;;;-2.10;66.60;;;;;;4106872;28;20053;-82
2023/03/08 02:23:22;;;;;;;9.02;0.98;;;-2.00;66.80;;;;;;4098510;28;20023;-82
2023/03/08 02:25:25;;;;;;;10.80;0.77;;;-2.10;67.10;;;;;;4107769;28;20087;-82
2023/03/08 02:27:27;;;;;;;5.25;0.60;;;-2.10;67.00;;;;;;4111766;28;20432;-83
2023/03/08 02:29:28;;;;;;;2.95;0.65;;;-2.10;67.10;;;;;;4110567;28;20822;-83
2023/03/08 02:31:28;;;;;;;7.22;0.70;;;-2.00;67.30;;;;;;4112443;28;20041;-83
2023/03/08 02:33:31;;;;;;;4.85;0.77;;;-2.00;67.50;;;;;;4097326;28;20070;-84
2023/03/08 02:35:32;;;;;;;4.18;0.60;;;-2.00;67.40;;;;;;4097466;28;20269;-84
2023/03/08 02:37:33;;;;;;;5.15;0.57;;;-2.00;67.50;;;;;;4112923;28;20022;-83
2023/03/08 02:39:33;;;;;;;2.15;0.77;;;-2.00;67.60;;;;;;4113269;28;20031;-83
2023/03/08 02:41:34;;;;;;;3.70;0.70;;;-1.90;67.80;;;;;;4111424;28;20353;-83
2023/03/08 02:43:35;;;;;;;5.80;0.82;;;-1.90;67.80;;;;;;4111168;28;20027;-82
2023/03/08 02:45:36;;;;;;;8.23;0.63;;;-1.90;67.90;;;;;;4093927;29;20158;-83
2023/03/08 02:47:37;;;;;;;5.95;0.73;;;-1.90;68.00;;;;;;4100268;28;20330;-84
2023/03/08 02:49:38;;;;;;;4.75;1.00;;;-1.90;67.90;;;;;;4101800;28;20031;-84
2023/03/08 02:51:39;;;;;;;4.53;0.90;;;-1.90;68.00;;;;;;4104337;28;20031;-84
2023/03/08 02:53:39;;;;;;;4.13;0.70;;;-1.80;68.20;;;;;;4100086;28;20023;-84
2023/03/08 02:55:40;;;;;;;2.05;0.60;;;-1.80;68.20;;;;;;4083912;29;20024;-84
2023/03/08 02:57:41;;;;;;;7.45;0.73;;;-1.80;68.20;;;;;;4089987;29;20028;-84
2023/03/08 02:59:41;;;;;;;4.70;0.55;;;-1.80;68.20;;;;;;4119802;28;20035;-83
2023/03/08 03:01:42;;;;;;;4.75;0.70;;;-1.80;68.40;;;;;;4119480;28;20019;-83
2023/03/08 03:03:43;;;;;;;4.18;0.70;;;-1.80;68.30;;;;;;4102425;28;20028;-83
2023/03/08 03:05:44;;;;;;;6.38;2.42;;;-1.70;68.30;;;;;;4104819;28;20176;-83
2023/03/08 03:07:45;;;;;;;8.02;3.33;;;-1.70;68.30;;;;;;4121702;28;20031;-84
2023/03/08 03:09:46;;;;;;;7.07;3.53;;;-1.70;68.30;;;;;;4104215;28;20118;-84
2023/03/08 03:11:47;;;;;;;7.15;3.30;;;-1.70;68.40;;;;;;4104611;28;20516;-82
2023/03/08 03:13:55;;;;;;;13.60;3.72;;;-1.70;68.50;;;;;;4119098;28;20026;-84
2023/03/08 03:15:55;;;;;;;12.88;5.18;;;-1.70;68.50;;;;;;4103196;28;20524;-84
2023/03/08 03:17:56;;;;;;;10.27;4.60;;;-1.60;68.60;;;;;;4103742;28;20031;-83
2023/03/08 03:19:57;;;;;;;7.50;3.50;;;-1.60;68.70;;;;;;4092290;29;20024;-83
2023/03/08 03:21:58;;;;;;;8.25;3.53;;;-1.60;68.70;;;;;;4117006;28;20045;-84
2023/03/08 03:23:59;;;;;;;6.25;1.80;;;-1.60;68.70;;;;;;4105788;28;20059;-83
2023/03/08 03:26:08;;;;;;;9.82;1.40;;;-1.60;68.60;;;;;;4118572;28;20031;-82
2023/03/08 03:28:09;;;;;;;4.55;0.93;;;-1.50;68.80;;;;;;4115360;28;20039;-83
2023/03/08 03:30:10;;;;;;;4.47;0.82;;;-1.50;69.10;;;;;;4099664;28;20180;-84
2023/03/08 03:32:31;;;;;;;4.60;0.80;;;-1.50;69.00;;;;;;4101152;28;20041;-84
2023/03/08 03:34:51;;;;;;;2.80;0.43;;;-1.50;69.00;;;;;;4113424;28;20035;-83
2023/03/08 03:36:52;;;;;;;2.30;0.70;;;-1.50;69.20;;;;;;4101532;28;20042;-85
2023/03/08 03:38:53;;;;;;;8.38;0.85;;;-1.40;69.30;;;;;;4083858;29;20078;-84
2023/03/08 03:41:17;;;;;;;5.07;0.70;;;-1.40;69.60;;;;;;4103057;28;20132;-84
2023/03/08 03:43:20;;;;;;;6.65;0.70;;;-1.40;69.30;;;;;;4089008;29;20058;-83
2023/03/08 03:45:41;;;;;;;3.42;0.50;;;-1.40;69.30;;;;;;4102873;28;20087;-84
2023/03/08 03:48:01;;;;;;;6.45;0.70;;;-1.40;69.20;;;;;;4116291;28;20070;-84
2023/03/08 03:50:22;;;;;;;4.43;0.75;;;-1.30;69.40;;;;;;4112955;28;20437;-83
2023/03/08 03:52:30;;;;;;;6.45;0.70;;;-1.30;69.60;;;;;;4102212;28;20387;-83
2023/03/08 03:54:51;;;;;;;1.95;0.40;;;-1.30;69.70;;;;;;4105297;28;21864;-83
2023/03/08 03:57:12;;;;;;;5.75;0.60;;;-1.20;69.90;;;;;;4116908;28;20058;-84
2023/03/08 03:59:33;;;;;;;6.10;0.75;;;-1.20;70.00;;;;;;4101432;28;20324;-84
2023/03/08 04:01:53;;;;;;;2.88;0.70;;;-1.20;70.40;;;;;;4119227;28;20452;-84
2023/03/08 04:04:14;;;;;;;3.08;0.60;;;-1.20;70.40;;;;;;4114735;28;20230;-82
2023/03/08 04:06:35;;;;;;;11.68;0.77;;;-1.20;70.20;;;;;;4114468;28;20508;-82
2023/03/08 04:09:02;;;;;;;4.15;0.85;;;-1.20;70.30;;;;;;4120275;28;20257;-84
2023/03/08 04:11:23;;;;;;;6.88;0.40;;;-1.20;70.10;;;;;;4114896;28;20039;-83
2023/03/08 04:13:27;;;;;;;2.55;0.65;;;-1.10;70.10;;;;;;4103210;29;20015;-83
2023/03/08 04:15:31;;;;;;;3.55;0.20;;;-1.20;70.10;;;;;;4130195;28;20046;-84
2023/03/08 04:17:35;;;;;;;2.85;0.45;;;-1.20;70.00;;;;;;4099480;28;20039;-83
2023/03/08 04:19:39;;;;;;;8.40;0.80;;;-1.10;70.10;;;;;;4117446;28;20111;-83
2023/03/08 04:21:46;;;;;;;3.20;0.38;;;-1.10;70.10;;;;;;4113385;28;20038;-85
2023/03/08 04:23:47;;;;;;;5.50;0.45;;;-1.10;70.20;;;;;;4088576;29;20449;-84
2023/03/08 04:25:48;;;;;;;3.13;0.38;;;-1.10;70.30;;;;;;4117914;28;20034;-84
2023/03/08 04:27:49;;;;;;;2.08;0.52;;;-1.20;70.40;;;;;;4102627;28;20027;-84
2023/03/08 04:29:51;;;;;;;2.88;0.60;;;-1.10;70.50;;;;;;4100135;28;20062;-85
2023/03/08 04:31:54;;;;;;;2.95;0.70;;;-1.10;70.40;;;;;;4112721;28;20034;-84
2023/03/08 04:33:57;;;;;;;0.90;0.38;;;-1.10;70.50;;;;;;4117709;28;20461;-85
2023/03/08 04:35:57;;;;;;;4.57;0.75;;;-1.10;70.50;;;;;;4118961;28;20043;-84
2023/03/08 04:37:59;;;;;;;1.02;0.50;;;-1.10;70.40;;;;;;4121752;28;20031;-85
2023/03/08 04:39:59;;;;;;;4.07;0.77;;;-1.20;70.40;;;;;;4100930;29;20024;-83
2023/03/08 04:42:00;;;;;;;0.88;0.20;;;-1.10;70.60;;;;;;4118660;28;20030;-85
2023/03/08 04:44:03;;;;;;;;;;;-1.20;70.50;;;;;;4121174;28;20031;-83
2023/03/08 04:46:08;;;;;;;2.63;0.40;;;-1.20;71.40;;;;;;4104874;28;19962;-84
2023/03/08 04:48:23;;;;;;;0.98;0.40;;;-1.10;70.60;;;;;;4083513;29;20035;-84
2023/03/08 04:50:33;;;;;;;1.42;0.20;;;-1.20;70.40;;;;;;4102018;28;20486;-83
2023/03/08 04:52:36;;;;;;;1.48;0.40;;;-1.20;70.40;;;;;;4120394;28;20046;-84
2023/03/08 04:54:37;;;;;;;4.30;0.60;;;-1.20;70.60;;;;;;4116880;28;20038;-84
2023/03/08 04:56:37;;;;;;;2.13;0.30;;;-1.30;70.50;;;;;;4099716;28;20544;-84
2023/03/08 04:58:39;;;;;;;2.55;0.32;;;-1.30;70.50;;;;;;4083070;29;20034;-84
2023/03/08 05:00:43;;;;;;;0.45;0.20;;;-1.30;70.60;;;;;;4110441;28;20059;-84
2023/03/08 05:02:56;;;;;;;0.68;0.40;;;-1.30;70.60;;;;;;4116198;28;20086;-83
2023/03/08 05:04:56;;;;;;;3.45;0.55;;;-1.30;70.80;;;;;;4114996;28;20035;-83
2023/03/08 05:06:57;;;;;;;6.78;0.57;;;-1.20;70.80;;;;;;4085509;29;20437;-84
2023/03/08 05:08:58;;;;;;;3.67;0.40;;;-1.30;70.70;;;;;;4114200;28;20023;-84
2023/03/08 05:11:01;;;;;;;1.48;0.40;;;-1.20;70.80;;;;;;4102151;28;20045;-85
2023/03/08 05:13:03;;;;;;;3.10;0.32;;;-1.40;70.70;;;;;;4101130;28;20031;-85
2023/03/08 05:15:24;;;;;;;1.23;0.40;;;-1.40;70.80;;;;;;4115804;28;21855;-85
2023/03/08 05:17:44;;;;;;;1.00;0.30;;;-1.30;71.00;;;;;;4105761;28;20406;-84
2023/03/08 05:20:06;;;;;;;5.15;0.40;;;-1.40;71.00;;;;;;4101571;28;20489;-86
2023/03/08 05:22:27;;;;;;;2.88;0.30;;;-1.40;70.90;;;;;;4116426;28;22012;-84
2023/03/08 05:24:47;;;;;;;3.22;0.50;;;-1.30;71.00;;;;;;4103442;28;20453;-84
2023/03/08 05:27:08;;;;;;;3.10;0.43;;;-1.40;71.00;;;;;;4113802;28;20441;-85
2023/03/08 05:29:29;;;;;;;0.52;0.20;;;-1.40;71.10;;;;;;4117269;28;20130;-85
2023/03/08 05:31:44;;;;;;;2.15;0.43;;;-1.50;70.90;;;;;;4116680;28;20110;-84
2023/03/08 05:33:48;;;;;;;1.13;0.35;;;-1.50;71.00;;;;;;4113757;28;20578;-84
2023/03/08 05:35:55;;;;;;;4.60;0.52;;;-1.60;70.90;;;;;;4117323;28;20030;-83
2023/03/08 05:37:57;;;;;;;4.88;0.55;;;-1.50;71.00;;;;;;4089790;29;20055;-84
2023/03/08 05:40:01;;;;;;;3.83;0.37;;;-1.40;71.20;;;;;;4085097;29;20027;-83
2023/03/08 05:42:03;;;;;;;4.00;0.30;;;-1.50;71.20;;;;;;4103307;28;20501;-84
2023/03/08 05:44:05;;;;;;;1.10;0.30;;;-1.50;71.30;;;;;;4109115;28;20054;-84
2023/03/08 05:46:10;;;;;;;4.20;0.40;;;-1.60;71.30;;;;;;4091123;28;20682;-83
2023/03/08 05:48:11;;;;;;;2.60;0.20;;;-1.50;71.30;;;;;;4115579;28;20066;-84
2023/03/08 05:50:12;;;;;;;2.72;0.30;;;-1.60;71.40;;;;;;4099273;28;20099;-85
2023/03/08 05:52:13;;;;;;;1.00;0.25;;;-1.60;71.30;;;;;;4099454;28;20034;-84
2023/03/08 05:54:13;;;;;;;0.80;0.43;;;-1.60;71.40;;;;;;4100055;28;20555;-83
2023/03/08 05:56:17;;;;;;;7.00;0.60;;;-1.60;71.40;;;;;;4098470;28;20028;-82
2023/03/08 05:58:18;;;;;;;1.15;0.35;;;-1.60;71.30;;;;;;4102377;28;20489;-84
2023/03/08 06:00:19;;;;;;;2.55;0.47;;;-1.70;71.40;;;;;;4110451;28;20094;-84
2023/03/08 06:02:20;;;;;;;2.50;0.35;;;-1.70;71.30;;;;;;4076321;29;20111;-83
2023/03/08 06:04:21;;;;;;;2.30;0.52;;;-1.70;71.40;;;;;;4097027;28;20615;-86
2023/03/08 06:06:24;;;;;;;2.00;0.50;;;-1.70;71.50;;;;;;4094459;28;20064;-83
2023/03/08 06:08:26;;;;;;;4.40;0.50;;;-1.70;72.30;;;;;;4096043;28;20034;-84
2023/03/08 06:10:27;;;;;;;3.63;0.70;;;-1.70;71.70;;;;;;4098386;29;20023;-84
2023/03/08 06:12:28;;;;;;;4.15;0.60;;;-1.80;71.60;;;;;;4115916;28;20030;-84
2023/03/08 06:14:41;;;;;;;1.50;0.55;;;-1.80;71.70;;;;;;4089247;29;20031;-84
2023/03/08 06:16:42;;;;;;;2.42;0.57;;;-1.80;71.90;;;;;;4117046;28;20674;-84
2023/03/08 06:19:02;;;;;;;5.75;0.90;;;-1.80;71.90;;;;;;4115176;28;20133;-83
2023/03/08 06:21:23;;;;;;;2.83;0.85;;;-1.80;71.90;;;;;;4114724;28;20030;-84
2023/03/08 06:23:44;;;;;;;2.97;1.10;;;-1.80;71.90;;;;;;4116958;28;20683;-85
2023/03/08 06:25:46;;;;;;;5.20;1.10;;;-1.80;72.50;;;;;;4101336;29;20067;-83
2023/03/08 06:28:07;;;;;;;1.50;0.63;;;-1.80;72.30;;;;;;4118024;28;20050;-83
2023/03/08 06:30:27;;;;;;;2.10;0.80;;;-1.70;72.50;;;;;;4116360;28;20117;-83
2023/03/08 06:32:48;;;;;;;1.67;0.70;;;-1.70;72.30;;;;;;4118553;28;20035;-83
2023/03/08 06:35:09;;;;;;;1.83;0.70;;;-1.80;72.50;;;;;;4121112;28;20054;-84
2023/03/08 06:37:36;;;;;;;1.92;0.88;;;-1.80;72.50;;;;;;4125770;28;20031;-84
2023/03/08 06:39:57;;;;;;;2.17;1.23;;;-1.80;72.40;;;;;;4124993;28;20027;-85
2023/03/08 06:42:17;;;;;;;5.82;1.60;;;-1.70;72.40;;;;;;4119930;28;20647;-83
2023/03/08 06:44:38;;;;;;;5.10;1.08;;;-1.80;72.20;;;;;;4117881;28;20309;-84
2023/03/08 06:46:59;;;;;;;9.63;1.13;;;-1.80;72.40;;;;;;4113210;28;20095;-84
2023/03/08 06:49:20;;;;;;;2.50;1.10;;;-1.70;72.60;;;;;;4114497;28;20022;-83
2023/03/08 06:51:41;;;;;;;6.10;1.25;;;-1.70;72.70;;;;;;4105105;28;20035;-83
2023/03/08 06:54:02;;;;;;;3.50;1.00;;;-1.70;72.80;;;;;;4117301;28;20039;-84
2023/03/08 06:56:23;;;;;;;1.92;0.90;;;-1.70;73.60;;;;;;4106115;28;20098;-84
2023/03/08 06:58:23;;;;;;;4.28;0.90;;;-1.70;72.90;;;;;;4100954;28;20059;-84
2023/03/08 07:00:24;;;;;;;3.97;0.98;;;-1.60;73.00;;;;;;4118291;28;20022;-83
2023/03/08 07:02:25;;;;;;;3.38;0.90;;;-1.60;73.00;;;;;;4122375;28;20361;-86
2023/03/08 07:04:25;;;;;;;1.85;1.00;;;-1.60;73.10;;;;;;4107365;28;20031;-83
2023/03/08 07:06:26;;;;;;;3.05;1.17;;;-1.60;73.10;;;;;;4121149;28;20038;-84
2023/03/08 07:08:35;;;;;;;1.52;1.00;;;-1.40;73.30;;;;;;4124393;28;20034;-84
2023/03/08 07:10:36;;;;;;;1.75;0.70;;;-1.60;73.20;;;;;;4104234;28;20162;-83
2023/03/08 07:12:42;;;;;;;1.50;0.70;;;-1.40;73.40;;;;;;4105542;29;20090;-83
2023/03/08 07:14:43;;;;;;;2.47;1.02;;;-1.50;73.10;;;;;;4103339;28;20104;-84
2023/03/08 07:16:49;;;;;;;2.53;1.17;;;-1.50;73.20;;;;;;4119933;28;20038;-84
2023/03/08 07:18:51;;;;;;;1.48;0.80;;;-1.50;73.30;;;;;;4107016;28;20600;-83
2023/03/08 07:20:54;;;;;;;1.23;0.65;;;-1.40;73.40;;;;;;4103766;28;20115;-83
2023/03/08 07:22:56;;;;;;;1.55;0.90;;;-1.40;73.40;;;;;;4102376;28;20047;-83
2023/03/08 07:25:19;;;;;;;2.17;0.68;;;-1.40;73.40;;;;;;4114578;28;20030;-86
2023/03/08 07:27:40;;;;;;;1.83;0.85;;;-1.30;73.50;;;;;;4117369;28;20109;-84
2023/03/08 07:30:01;;;;;;;2.38;1.00;;;-1.30;73.60;;;;;;4095018;28;20208;-84
2023/03/08 07:32:22;;;;;;;2.08;0.80;;;-1.30;73.70;;;;;;4116455;28;20031;-84
2023/03/08 07:34:44;;;;;;;1.90;1.00;;;-1.20;73.70;;;;;;4118204;28;20038;-83
2023/03/08 07:37:06;;;;;;;1.27;0.80;;;-1.20;73.70;;;;;;4117575;28;20086;-83
2023/03/08 07:39:26;;;;;;;4.70;1.00;;;-1.20;73.60;;;;;;4117590;28;20035;-84
2023/03/08 07:41:48;;;;;;;1.98;0.95;;;-1.10;73.80;;;;;;4116380;28;20409;-84
2023/03/08 07:44:09;;;;;;;1.27;0.80;;;-1.00;73.80;;;;;;4117524;28;20203;-84
2023/03/08 07:46:30;;;;;;;2.35;0.95;;;-1.10;73.80;;;;;;4120404;28;20424;-84
2023/03/08 07:48:52;;;;;;;1.63;0.85;;;-1.00;73.90;;;;;;4119419;28;20043;-84
2023/03/08 07:51:13;;;;;;;1.52;0.60;;;-1.00;73.80;;;;;;4127643;28;20050;-83
2023/03/08 07:53:35;;;;;;;1.23;0.57;;;-1.00;73.90;;;;;;4111775;28;20034;-85
2023/03/08 07:55:37;;;;;;;1.27;0.60;;;-0.90;74.00;;;;;;4098139;28;20031;-84
2023/03/08 07:57:37;;;;;;;0.95;0.70;;;-0.90;73.90;;;;;;4117281;28;20043;-85
2023/03/08 07:59:38;;;;;;;1.35;0.60;;;-0.80;74.20;;;;;;4083829;29;20028;-84
2023/03/08 08:01:39;;;;;;;2.08;0.77;;;-0.80;74.30;;;;;;4082253;29;20020;-84
2023/03/08 08:03:42;;;;;;;1.13;0.55;;;-0.80;74.30;;;;;;4081683;29;20121;-85
2023/03/08 08:06:04;;;;;;;1.52;0.68;;;-0.70;74.80;;;;;;4101088;28;20484;-84
2023/03/08 08:08:25;;;;;;;3.38;0.65;;;-0.70;74.50;;;;;;4114339;28;20122;-84
2023/03/08 08:10:46;;;;;;;2.25;0.70;;;-0.70;74.50;;;;;;4116422;28;20095;-84
2023/03/08 08:13:06;;;;;;;1.75;0.60;;;-0.60;74.70;;;;;;4114616;28;20628;-84
2023/03/08 08:15:29;;;;;;;8.02;0.70;;;-0.50;74.80;;;;;;4101141;28;20054;-84
2023/03/08 08:17:51;;;;;;;1.20;0.77;;;-0.50;74.70;;;;;;4101606;28;20035;-85
2023/03/08 08:20:11;;;;;;;1.00;0.70;;;-0.40;75.00;;;;;;4098962;28;20121;-84
2023/03/08 08:22:35;;;;;;;2.60;0.85;;;-0.40;74.80;;;;;;4116111;28;20038;-85
2023/03/08 08:24:55;;;;;;;1.02;0.60;;;-0.30;74.80;;;;;;4099181;28;20098;-84
2023/03/08 08:27:13;;;;;;;1.88;0.80;;;-0.30;74.90;;;;;;4112989;28;20054;-84
2023/03/08 08:29:14;;;;;;;0.80;0.40;;;-0.20;75.00;;;;;;4099704;28;20023;-84
2023/03/08 08:31:17;;;;;;;1.48;0.63;;;-0.20;74.90;;;;;;4112499;28;20030;-83
2023/03/08 08:33:18;;;;;;;;;;;-0.10;75.10;;;;;;4098187;28;20042;-83
2023/03/08 08:35:39;;;;;;;1.88;0.65;;;-0.10;75.90;;;;;;4114942;28;19910;-84
2023/03/08 08:38:00;;;;;;;0.93;0.60;;;0.00;75.00;;;;;;4111993;28;20378;-84
2023/03/08 08:40:20;;;;;;;1.38;0.88;;;0.10;75.00;;;;;;4113135;28;20061;-83
2023/03/08 08:42:21;;;;;;;1.20;0.80;;;0.10;75.20;;;;;;4112675;28;20038;-84
2023/03/08 08:44:26;;;;;;;3.33;0.63;;;0.20;75.30;;;;;;4098983;28;20487;-83
2023/03/08 08:46:47;;;;;;;3.35;0.73;;;0.20;75.20;;;;;;4114770;28;20494;-84
2023/03/08 08:48:47;;;;;;;2.35;0.70;;;0.30;75.30;;;;;;4098852;28;20058;-83
2023/03/08 08:51:12;;;;;;;1.30;0.60;;;0.30;75.30;;;;;;4113352;28;20037;-84
2023/03/08 08:53:33;;;;;;;0.82;0.50;;;0.40;75.40;;;;;;4118394;28;20031;-84
2023/03/08 08:55:57;;;;;;;1.38;0.73;;;0.50;75.60;;;;;;4097700;28;20071;-84
2023/03/08 08:58:17;;;;;;;3.42;0.50;;;0.50;75.70;;;;;;4111409;28;20031;-83
2023/03/08 09:00:38;;;;;;;0.47;0.30;;;0.60;75.50;;;;;;4099368;28;20035;-86
2023/03/08 09:03:00;;;;;;;2.05;0.40;;;0.70;75.40;;;;;;4114838;28;20543;-83
2023/03/08 09:05:21;;;;;;;0.68;0.52;;;0.70;75.30;;;;;;4111448;28;20121;-83
2023/03/08 09:07:22;;;;;;;1.40;0.50;;;0.80;75.40;;;;;;4095019;29;20043;-83
2023/03/08 09:09:22;;;;;;;1.27;0.68;;;0.80;75.10;;;;;;4109908;28;20045;-83
2023/03/08 09:11:24;;;;;;;3.70;0.60;;;0.90;75.20;;;;;;4112069;28;20031;-83
2023/03/08 09:13:25;;;;;;;0.40;0.30;;;0.90;75.30;;;;;;4110533;28;20489;-83
2023/03/08 09:15:26;;;;;;;0.73;0.40;;;1.00;75.30;;;;;;4110699;28;20043;-84
2023/03/08 09:17:26;;;;;;;0.40;0.40;;;1.00;75.10;;;;;;4094489;28;20027;-83
2023/03/08 09:19:27;;;;;;;1.05;0.50;;;1.10;75.10;;;;;;4114857;28;20027;-83
2023/03/08 09:21:29;;;;;;;2.15;0.52;;;1.10;75.20;;;;;;4094236;28;20031;-83
2023/03/08 09:23:30;;;;;;;4.75;0.80;;;1.20;75.20;;;;;;4114697;28;20650;-83
2023/03/08 09:25:34;;;;;;;2.33;0.90;;;1.20;75.30;;;;;;4109890;28;20089;-82
2023/03/08 09:27:55;;;;;;;1.55;0.73;;;1.30;75.20;;;;;;4109468;28;20039;-83
2023/03/08 09:30:16;;;;;;;1.85;0.52;;;1.40;76.00;;;;;;4112378;28;20489;-83
2023/03/08 09:32:37;;;;;;;4.32;0.90;;;1.50;75.10;;;;;;4109275;28;20351;-82
2023/03/08 09:34:58;;;;;;;3.00;1.20;;;1.50;75.10;;;;;;4110850;28;20054;-82
2023/03/08 09:37:19;;;;;;;3.75;1.00;;;1.60;75.40;;;;;;4108727;28;20035;-83
2023/03/08 09:39:40;;;;;;;1.13;0.80;;;1.70;75.40;;;;;;4110348;28;20166;-83
2023/03/08 09:42:02;;;;;;;2.00;1.20;;;1.80;75.60;;;;;;4111448;28;20031;-83
2023/03/08 09:44:47;;;;;;;1.77;1.17;;;1.90;75.50;;;;;;4112784;28;20035;-82
2023/03/08 09:47:14;;;;;;;1.60;1.10;;;2.00;75.20;;;;;;4105770;28;20428;-84
2023/03/08 09:49:21;;;;;;;1.77;0.82;;;2.10;75.00;;;;;;4111972;28;20030;-82
2023/03/08 09:51:25;;;;;;;2.13;1.00;;;2.20;74.90;;;;;;4112305;28;20062;-82
2023/03/08 09:54:01;;;;;;;2.03;1.05;;;2.20;74.70;;;;;;4116413;28;20027;-83
2023/03/08 09:56:35;;;;;;;1.27;0.80;;;2.30;74.50;;;;;;4064583;29;20095;-83
2023/03/08 09:59:04;;;;;;;0.82;0.73;;;2.40;74.10;;;;;;4067953;29;20172;-82
2023/03/08 10:01:45;;;;;;;4.97;0.70;;;2.50;73.80;;;;;;4062986;29;20522;-81
2023/03/08 10:04:28;;;;;;;2.20;1.13;;;2.50;73.50;;;;;;4066767;29;20040;-81
2023/03/08 10:06:53;;;;;;;1.40;0.70;;;2.70;73.20;;;;;;4063894;29;20192;-81
2023/03/08 10:09:29;;;;;;;2.50;0.75;;;2.60;73.00;;;;;;4064700;29;20108;-81
2023/03/08 10:11:40;;;;;;;1.52;0.80;;;2.70;72.70;;;;;;4049538;29;20032;-81
2023/03/08 10:13:44;;;;;;;1.80;0.98;;;2.70;72.50;;;;;;4066825;29;20066;-81
2023/03/08 10:15:50;;;;;;;4.70;1.30;;;2.80;72.40;;;;;;4064868;29;20511;-80
2023/03/08 10:18:32;;;;;;;1.33;0.80;;;2.80;72.00;;;;;;4063165;29;20035;-79
2023/03/08 10:20:52;;;;;;;1.33;0.82;;;2.90;71.50;;;;;;4064668;29;20032;-81
2023/03/08 10:23:17;;;;;;;1.92;0.70;;;2.90;71.20;;;;;;4068681;29;20147;-80
2023/03/08 10:25:37;;;;;;;1.50;0.90;;;2.90;70.70;;;;;;4063640;29;20047;-81
2023/03/08 10:28:01;;;;;;;1.27;0.70;;;3.00;70.60;;;;;;4065602;29;20032;-81
2023/03/08 10:30:31;;;;;;;2.13;0.73;;;3.00;70.40;;;;;;4067008;29;20040;-81
2023/03/08 10:32:58;;;;;;;2.80;0.50;;;3.00;69.90;;;;;;4097395;28;20443;-81
2023/03/08 10:35:03;;;;;;;2.97;0.68;;;3.10;70.00;;;;;;4097947;28;20050;-82
2023/03/08 10:37:06;;;;;;;3.25;0.90;;;3.10;70.00;;;;;;4079191;29;20432;-81
2023/03/08 10:39:10;;;;;;;1.23;0.75;;;3.20;69.80;;;;;;4093475;28;20091;-81
2023/03/08 10:41:15;;;;;;;2.97;0.70;;;3.20;69.60;;;;;;4111221;28;20030;-81
2023/03/08 10:43:40;;;;;;;0.40;0.40;;;3.30;69.50;;;;;;4113675;28;20042;-82
2023/03/08 10:45:41;;;;;;;4.85;0.93;;;3.30;69.10;;;;;;4113902;28;20023;-83
2023/03/08 10:47:51;;;;;;;2.00;0.50;;;3.40;68.80;;;;;;4113687;28;20111;-82
2023/03/08 10:50:12;;;;;;;1.15;0.50;;;3.40;68.70;;;;;;4113331;28;20027;-81
2023/03/08 10:52:26;;;;;;;0.68;0.40;;;3.50;68.50;;;;;;4087813;28;20031;-81
2023/03/08 10:54:27;;;;;;;8.57;0.70;;;3.50;68.20;;;;;;4094284;28;20027;-81
2023/03/08 10:57:00;;;;;;;2.40;0.82;;;3.60;68.00;;;;;;4112088;28;20133;-82
2023/03/08 10:59:32;;;;;;;1.33;0.60;;;3.60;67.50;;;;;;4112427;28;20039;-82
2023/03/08 11:01:57;;;;;;;1.30;0.40;;;3.70;67.30;;;;;;4099599;28;20130;-82
2023/03/08 11:04:21;;;;;;;0.68;0.35;;;3.70;66.10;;;;;;4115206;28;20034;-81
2023/03/08 11:06:42;;;;;;;1.02;0.50;;;3.80;66.70;;;;;;4114882;28;20074;-82
2023/03/08 11:09:18;;;;;;;1.48;0.30;;;3.90;66.80;;;;;;4100907;28;20036;-82
2023/03/08 11:11:41;;;;;;;2.25;0.40;;;3.90;66.50;;;;;;4119655;28;20048;-83
2023/03/08 11:14:04;;;;;;;0.95;0.20;;;4.00;66.20;;;;;;4098007;28;20110;-81
2023/03/08 11:16:54;;;;;;;3.10;0.40;;;4.10;65.90;;;;;;4108602;28;20037;-81
2023/03/08 11:19:39;;;;;;;0.55;0.30;;;4.10;65.60;;;;;;4095592;28;20070;-81